Tropical Cyclones
[Index]
Main Index Home Page Stock Weather Photos Extreme Storms Discussion Storm News and Storm Chasing Reports Tropical Cyclones / Hurricanes / Typhoons Weather Data and Links Wild Fires / Bushfires Weather Observation Techniques Weather Picture Catalogue Tornado Pictures and Reports Stock Video Footage and DVDs for sale
Season 1974-1975 Tropical Cyclone 197529 Track Map
Season 1974-1975 Summaries: [BoM-AU] [JTWC-AU] [JTWC-SIO] [JTWC-SPAC] [JTWC-SH]
<<- Previous TC | JTWC 1974-1975 Season | Next TC ->>

click for intensity scale information  Lat/long Grid: Show Hide

 Date Labels: Show Hide

Joint Typhoon Warning Centre Cyclone Data

Name: 197529
Number: 901 / 7529

30 Mar 1975 00:00 UTC to 12 Apr 1975 12:00 UTC

    date/time    lat    long     hPa   cat  kts
1975-03-30 00   17.1   163.0                              
1975-03-30 06   17.1   164.0                              
1975-03-30 12   17.0   164.9                              
1975-03-30 18   16.8   165.7                              
1975-03-31 00   16.5   166.4                              
1975-03-31 06   16.2   166.0                              
1975-03-31 12   15.8   165.6                              
1975-03-31 18   15.5   166.2                              
1975-04-01 00   15.2   166.7                              
1975-04-01 06   14.8   167.1                              
1975-04-01 12   14.3   167.6                              
1975-04-01 18   14.0   168.2                              
1975-04-02 00   13.9   168.8                              
1975-04-02 06   13.9   169.2                              
1975-04-02 12   14.0   169.6                              
1975-04-02 18   14.0   169.9                              
1975-04-03 00   14.1   170.2                              
1975-04-03 06   14.4   170.6                              
1975-04-03 12   14.9   171.0                              
1975-04-03 18   15.2   171.3                              
1975-04-04 00   15.5   171.5                              
1975-04-04 06   16.2   171.9                              
1975-04-04 12   16.9   172.6                              
1975-04-04 18   17.5   173.5                              
1975-04-05 00   18.0   174.7                              
1975-04-05 06   18.3   176.3                              
1975-04-05 12   18.7   177.8                              
1975-04-05 18   19.5   178.8                              
1975-04-06 00   20.4   179.6                              
1975-04-06 06   20.9   179.7W                             
1975-04-06 12   21.3   179.1W                             
1975-04-06 18   21.5   178.2W                             
1975-04-07 00   21.4   177.4W                             
1975-04-07 06   20.8   177.2W                             
1975-04-07 12   20.1   177.7W                             
1975-04-07 18   19.9   178.5W                             
1975-04-08 00   20.0   179.4W                             
1975-04-08 06   20.3   179.6                              
1975-04-08 12   20.7   178.6                              
1975-04-08 18   21.1   177.8                              
1975-04-09 00   21.7   177.0                              
1975-04-09 06   22.5   176.2                              
1975-04-09 12   23.6   175.7                              
1975-04-09 18   24.9   175.6                              
1975-04-10 00   26.0   175.7                              
1975-04-10 06   26.7   175.8                              
1975-04-10 12   27.5   176.0                              
1975-04-10 18   28.2   176.1                              
1975-04-11 00   29.0   176.2                              
1975-04-11 06   29.5   176.8                              
1975-04-11 12   29.9   177.8                              
1975-04-11 18   31.0   178.9                              
1975-04-12 00   32.1   179.9                              
1975-04-12 06   32.7   179.1W                             
1975-04-12 12   32.9   178.1W                             
Winds are 1-min average.

Tropical cyclone tracks developed by Michael Bath using data from the Joint Typhoon Warning Centre Best Tracks and Google Maps.


[Australian Severe Weather index] [Copyright Notice] [Email Contacts] [Search This Site] [Privacy Policy]
Document: tropical_cyclone_197529.htm Updated: 18 September 2016